sensor_id;sensor_type;location;lat;lon;timestamp;P1;durP1;ratioP1;P2;durP2;ratioP2
85695;SDS011;76240;50.902;3.892;2024-03-02T00:01:52;1.75;;;1.10;;
85695;SDS011;76240;50.902;3.892;2024-03-02T00:04:18;3.75;;;1.10;;
85695;SDS011;76240;50.902;3.892;2024-03-02T00:06:44;1.75;;;1.10;;
85695;SDS011;76240;50.902;3.892;2024-03-02T00:09:10;4.30;;;1.30;;
85695;SDS011;76240;50.902;3.892;2024-03-02T00:11:37;3.42;;;1.08;;
85695;SDS011;76240;50.902;3.892;2024-03-02T00:14:04;2.88;;;1.13;;
85695;SDS011;76240;50.902;3.892;2024-03-02T00:16:31;2.53;;;1.10;;
85695;SDS011;76240;50.902;3.892;2024-03-02T00:19:03;2.13;;;1.00;;
85695;SDS011;76240;50.902;3.892;2024-03-02T00:21:30;1.75;;;0.95;;
85695;SDS011;76240;50.902;3.892;2024-03-02T00:23:57;2.33;;;1.13;;
85695;SDS011;76240;50.902;3.892;2024-03-02T00:26:24;3.15;;;1.17;;
85695;SDS011;76240;50.902;3.892;2024-03-02T00:28:54;2.25;;;1.00;;
85695;SDS011;76240;50.902;3.892;2024-03-02T00:31:22;4.77;;;0.93;;
85695;SDS011;76240;50.902;3.892;2024-03-02T00:33:48;2.50;;;1.00;;
85695;SDS011;76240;50.902;3.892;2024-03-02T00:36:26;3.10;;;1.30;;
85695;SDS011;76240;50.902;3.892;2024-03-02T00:38:53;2.88;;;1.10;;
85695;SDS011;76240;50.902;3.892;2024-03-02T00:43:59;2.58;;;1.10;;
85695;SDS011;76240;50.902;3.892;2024-03-02T00:46:36;2.47;;;1.10;;
85695;SDS011;76240;50.902;3.892;2024-03-02T00:49:12;4.57;;;1.20;;
85695;SDS011;76240;50.902;3.892;2024-03-02T00:51:46;1.92;;;1.27;;
85695;SDS011;76240;50.902;3.892;2024-03-02T00:54:18;5.93;;;1.27;;
85695;SDS011;76240;50.902;3.892;2024-03-02T00:56:47;1.90;;;1.15;;
85695;SDS011;76240;50.902;3.892;2024-03-02T00:59:13;1.77;;;1.05;;
85695;SDS011;76240;50.902;3.892;2024-03-02T01:01:38;4.07;;;1.25;;
85695;SDS011;76240;50.902;3.892;2024-03-02T01:04:04;2.67;;;1.40;;
85695;SDS011;76240;50.902;3.892;2024-03-02T01:06:30;2.95;;;1.30;;
85695;SDS011;76240;50.902;3.892;2024-03-02T01:08:56;3.47;;;1.40;;
85695;SDS011;76240;50.902;3.892;2024-03-02T01:11:22;3.30;;;1.30;;
85695;SDS011;76240;50.902;3.892;2024-03-02T01:13:48;2.47;;;1.30;;
85695;SDS011;76240;50.902;3.892;2024-03-02T01:16:14;2.55;;;1.35;;
85695;SDS011;76240;50.902;3.892;2024-03-02T01:18:41;4.07;;;1.55;;
85695;SDS011;76240;50.902;3.892;2024-03-02T01:21:07;5.03;;;1.65;;
85695;SDS011;76240;50.902;3.892;2024-03-02T01:23:33;6.32;;;1.48;;
85695;SDS011;76240;50.902;3.892;2024-03-02T01:25:59;4.28;;;1.60;;
85695;SDS011;76240;50.902;3.892;2024-03-02T01:28:25;4.82;;;1.60;;
85695;SDS011;76240;50.902;3.892;2024-03-02T01:30:51;4.40;;;1.73;;
85695;SDS011;76240;50.902;3.892;2024-03-02T01:33:19;3.72;;;1.50;;
85695;SDS011;76240;50.902;3.892;2024-03-02T01:35:46;3.83;;;1.70;;
85695;SDS011;76240;50.902;3.892;2024-03-02T01:38:12;3.83;;;1.70;;
85695;SDS011;76240;50.902;3.892;2024-03-02T01:40:38;4.63;;;1.65;;
85695;SDS011;76240;50.902;3.892;2024-03-02T01:43:05;3.70;;;1.70;;
85695;SDS011;76240;50.902;3.892;2024-03-02T01:45:32;3.28;;;1.60;;
85695;SDS011;76240;50.902;3.892;2024-03-02T01:47:59;4.05;;;1.80;;
85695;SDS011;76240;50.902;3.892;2024-03-02T01:50:25;3.80;;;1.70;;
85695;SDS011;76240;50.902;3.892;2024-03-02T01:52:52;3.65;;;1.48;;
85695;SDS011;76240;50.902;3.892;2024-03-02T01:55:18;4.05;;;1.60;;
85695;SDS011;76240;50.902;3.892;2024-03-02T01:57:45;3.72;;;1.77;;
85695;SDS011;76240;50.902;3.892;2024-03-02T02:00:13;4.80;;;2.00;;
85695;SDS011;76240;50.902;3.892;2024-03-02T02:02:39;6.43;;;1.70;;
85695;SDS011;76240;50.902;3.892;2024-03-02T02:05:05;3.97;;;1.80;;
85695;SDS011;76240;50.902;3.892;2024-03-02T02:07:31;4.15;;;1.80;;
85695;SDS011;76240;50.902;3.892;2024-03-02T02:09:58;5.30;;;1.80;;
85695;SDS011;76240;50.902;3.892;2024-03-02T02:12:24;3.85;;;1.70;;
85695;SDS011;76240;50.902;3.892;2024-03-02T02:14:50;4.20;;;1.85;;
85695;SDS011;76240;50.902;3.892;2024-03-02T02:17:16;5.30;;;1.90;;
85695;SDS011;76240;50.902;3.892;2024-03-02T02:19:42;5.45;;;2.15;;
85695;SDS011;76240;50.902;3.892;2024-03-02T02:22:09;4.75;;;1.80;;
85695;SDS011;76240;50.902;3.892;2024-03-02T02:24:35;3.70;;;1.90;;
85695;SDS011;76240;50.902;3.892;2024-03-02T02:27:04;5.72;;;2.80;;
85695;SDS011;76240;50.902;3.892;2024-03-02T02:29:30;5.75;;;1.90;;
85695;SDS011;76240;50.902;3.892;2024-03-02T02:31:56;4.03;;;1.77;;
85695;SDS011;76240;50.902;3.892;2024-03-02T02:34:22;6.30;;;1.73;;
85695;SDS011;76240;50.902;3.892;2024-03-02T02:36:48;5.03;;;1.90;;
85695;SDS011;76240;50.902;3.892;2024-03-02T02:39:15;5.68;;;1.90;;
85695;SDS011;76240;50.902;3.892;2024-03-02T02:41:43;6.68;;;1.98;;
85695;SDS011;76240;50.902;3.892;2024-03-02T02:44:09;5.53;;;1.80;;
85695;SDS011;76240;50.902;3.892;2024-03-02T02:46:38;8.75;;;1.73;;
85695;SDS011;76240;50.902;3.892;2024-03-02T02:49:04;6.53;;;1.90;;
85695;SDS011;76240;50.902;3.892;2024-03-02T02:51:30;4.90;;;1.60;;
85695;SDS011;76240;50.902;3.892;2024-03-02T02:53:56;5.30;;;1.80;;
85695;SDS011;76240;50.902;3.892;2024-03-02T02:56:22;5.95;;;1.90;;
85695;SDS011;76240;50.902;3.892;2024-03-02T02:58:48;5.47;;;1.80;;
85695;SDS011;76240;50.902;3.892;2024-03-02T03:01:15;9.20;;;1.75;;
85695;SDS011;76240;50.902;3.892;2024-03-02T03:03:44;9.18;;;1.90;;
85695;SDS011;76240;50.902;3.892;2024-03-02T03:06:10;6.57;;;1.70;;
85695;SDS011;76240;50.902;3.892;2024-03-02T03:08:36;4.68;;;1.50;;
85695;SDS011;76240;50.902;3.892;2024-03-02T03:11:03;6.97;;;1.67;;
85695;SDS011;76240;50.902;3.892;2024-03-02T03:13:30;5.13;;;1.52;;
85695;SDS011;76240;50.902;3.892;2024-03-02T03:15:57;4.00;;;1.58;;
85695;SDS011;76240;50.902;3.892;2024-03-02T03:18:23;5.30;;;1.50;;
85695;SDS011;76240;50.902;3.892;2024-03-02T03:20:49;6.13;;;1.90;;
85695;SDS011;76240;50.902;3.892;2024-03-02T03:23:15;4.13;;;1.38;;
85695;SDS011;76240;50.902;3.892;2024-03-02T03:25:42;8.70;;;1.85;;
85695;SDS011;76240;50.902;3.892;2024-03-02T03:28:08;2.85;;;1.40;;
85695;SDS011;76240;50.902;3.892;2024-03-02T03:30:37;6.63;;;1.60;;
85695;SDS011;76240;50.902;3.892;2024-03-02T03:33:04;5.47;;;1.52;;
85695;SDS011;76240;50.902;3.892;2024-03-02T03:35:33;5.25;;;1.58;;
85695;SDS011;76240;50.902;3.892;2024-03-02T03:38:00;6.05;;;1.60;;
85695;SDS011;76240;50.902;3.892;2024-03-02T03:40:26;5.72;;;1.58;;
85695;SDS011;76240;50.902;3.892;2024-03-02T03:42:52;5.85;;;1.38;;
85695;SDS011;76240;50.902;3.892;2024-03-02T03:45:18;6.63;;;1.63;;
85695;SDS011;76240;50.902;3.892;2024-03-02T03:47:44;5.88;;;1.70;;
85695;SDS011;76240;50.902;3.892;2024-03-02T03:50:10;4.50;;;1.88;;
85695;SDS011;76240;50.902;3.892;2024-03-02T03:52:37;5.80;;;1.55;;
85695;SDS011;76240;50.902;3.892;2024-03-02T03:55:03;4.65;;;1.70;;
85695;SDS011;76240;50.902;3.892;2024-03-02T03:57:30;3.95;;;1.60;;
85695;SDS011;76240;50.902;3.892;2024-03-02T03:59:56;7.28;;;1.50;;
85695;SDS011;76240;50.902;3.892;2024-03-02T04:02:22;5.00;;;1.83;;
85695;SDS011;76240;50.902;3.892;2024-03-02T04:04:49;5.68;;;1.60;;
85695;SDS011;76240;50.902;3.892;2024-03-02T04:07:15;5.57;;;1.60;;
85695;SDS011;76240;50.902;3.892;2024-03-02T04:09:41;5.63;;;1.60;;
85695;SDS011;76240;50.902;3.892;2024-03-02T04:12:07;4.78;;;1.50;;
85695;SDS011;76240;50.902;3.892;2024-03-02T04:14:33;7.25;;;1.60;;
85695;SDS011;76240;50.902;3.892;2024-03-02T04:16:59;4.25;;;1.58;;
85695;SDS011;76240;50.902;3.892;2024-03-02T04:19:25;6.20;;;1.55;;
85695;SDS011;76240;50.902;3.892;2024-03-02T04:21:52;6.97;;;2.13;;
85695;SDS011;76240;50.902;3.892;2024-03-02T04:24:18;7.82;;;1.60;;
85695;SDS011;76240;50.902;3.892;2024-03-02T04:26:44;7.15;;;1.98;;
85695;SDS011;76240;50.902;3.892;2024-03-02T04:29:09;5.53;;;1.80;;
85695;SDS011;76240;50.902;3.892;2024-03-02T04:31:35;4.50;;;1.50;;
85695;SDS011;76240;50.902;3.892;2024-03-02T04:34:01;4.18;;;1.40;;
85695;SDS011;76240;50.902;3.892;2024-03-02T04:36:27;6.53;;;1.92;;
85695;SDS011;76240;50.902;3.892;2024-03-02T04:38:53;6.57;;;1.50;;
85695;SDS011;76240;50.902;3.892;2024-03-02T04:41:19;5.68;;;1.52;;
85695;SDS011;76240;50.902;3.892;2024-03-02T04:43:45;5.20;;;1.98;;
85695;SDS011;76240;50.902;3.892;2024-03-02T04:46:10;5.75;;;1.45;;
85695;SDS011;76240;50.902;3.892;2024-03-02T04:48:36;5.93;;;1.70;;
85695;SDS011;76240;50.902;3.892;2024-03-02T04:51:02;7.43;;;1.70;;
85695;SDS011;76240;50.902;3.892;2024-03-02T04:53:28;4.07;;;1.63;;
85695;SDS011;76240;50.902;3.892;2024-03-02T04:55:55;4.85;;;1.70;;
85695;SDS011;76240;50.902;3.892;2024-03-02T04:58:21;5.97;;;1.80;;
85695;SDS011;76240;50.902;3.892;2024-03-02T05:00:46;5.97;;;1.80;;
85695;SDS011;76240;50.902;3.892;2024-03-02T05:03:12;8.55;;;2.00;;
85695;SDS011;76240;50.902;3.892;2024-03-02T05:05:39;7.15;;;1.60;;
85695;SDS011;76240;50.902;3.892;2024-03-02T05:08:05;8.98;;;1.70;;
85695;SDS011;76240;50.902;3.892;2024-03-02T05:10:31;8.43;;;1.88;;
85695;SDS011;76240;50.902;3.892;2024-03-02T05:12:57;9.98;;;1.65;;
85695;SDS011;76240;50.902;3.892;2024-03-02T05:15:24;5.75;;;1.70;;
85695;SDS011;76240;50.902;3.892;2024-03-02T05:17:50;10.13;;;1.70;;
85695;SDS011;76240;50.902;3.892;2024-03-02T05:20:16;4.15;;;1.58;;
85695;SDS011;76240;50.902;3.892;2024-03-02T05:22:42;5.38;;;1.40;;
85695;SDS011;76240;50.902;3.892;2024-03-02T05:25:08;6.13;;;1.50;;
85695;SDS011;76240;50.902;3.892;2024-03-02T05:27:37;6.30;;;2.28;;
85695;SDS011;76240;50.902;3.892;2024-03-02T05:30:03;8.00;;;2.00;;
85695;SDS011;76240;50.902;3.892;2024-03-02T05:32:31;7.28;;;1.50;;
85695;SDS011;76240;50.902;3.892;2024-03-02T05:34:58;5.43;;;1.80;;
85695;SDS011;76240;50.902;3.892;2024-03-02T05:37:24;5.55;;;1.52;;
85695;SDS011;76240;50.902;3.892;2024-03-02T05:39:50;6.22;;;1.65;;
85695;SDS011;76240;50.902;3.892;2024-03-02T05:42:16;5.90;;;1.90;;
85695;SDS011;76240;50.902;3.892;2024-03-02T05:44:42;5.60;;;1.60;;
85695;SDS011;76240;50.902;3.892;2024-03-02T05:47:08;7.07;;;1.90;;
85695;SDS011;76240;50.902;3.892;2024-03-02T05:49:34;3.88;;;1.58;;
85695;SDS011;76240;50.902;3.892;2024-03-02T05:52:00;4.13;;;1.40;;
85695;SDS011;76240;50.902;3.892;2024-03-02T05:54:26;5.03;;;1.50;;
85695;SDS011;76240;50.902;3.892;2024-03-02T05:56:52;4.53;;;1.67;;
85695;SDS011;76240;50.902;3.892;2024-03-02T05:59:19;6.95;;;1.88;;
85695;SDS011;76240;50.902;3.892;2024-03-02T06:01:45;3.50;;;1.55;;
85695;SDS011;76240;50.902;3.892;2024-03-02T06:04:12;4.70;;;1.48;;
85695;SDS011;76240;50.902;3.892;2024-03-02T06:06:38;11.75;;;2.17;;
85695;SDS011;76240;50.902;3.892;2024-03-02T06:09:05;8.02;;;1.80;;
85695;SDS011;76240;50.902;3.892;2024-03-02T06:11:37;6.10;;;1.73;;
85695;SDS011;76240;50.902;3.892;2024-03-02T06:14:08;7.65;;;1.60;;
85695;SDS011;76240;50.902;3.892;2024-03-02T06:16:35;7.70;;;1.60;;
85695;SDS011;76240;50.902;3.892;2024-03-02T06:19:01;4.63;;;1.80;;
85695;SDS011;76240;50.902;3.892;2024-03-02T06:21:27;4.47;;;1.40;;
85695;SDS011;76240;50.902;3.892;2024-03-02T06:23:53;10.30;;;1.90;;
85695;SDS011;76240;50.902;3.892;2024-03-02T06:26:19;7.32;;;2.03;;
85695;SDS011;76240;50.902;3.892;2024-03-02T06:28:46;6.28;;;1.55;;
85695;SDS011;76240;50.902;3.892;2024-03-02T06:31:12;8.68;;;1.70;;
85695;SDS011;76240;50.902;3.892;2024-03-02T06:33:38;10.80;;;1.77;;
85695;SDS011;76240;50.902;3.892;2024-03-02T06:36:05;8.02;;;1.70;;
85695;SDS011;76240;50.902;3.892;2024-03-02T06:38:33;8.00;;;1.85;;
85695;SDS011;76240;50.902;3.892;2024-03-02T06:40:59;6.72;;;1.75;;
85695;SDS011;76240;50.902;3.892;2024-03-02T06:43:25;10.23;;;1.73;;
85695;SDS011;76240;50.902;3.892;2024-03-02T06:45:51;8.25;;;1.50;;
85695;SDS011;76240;50.902;3.892;2024-03-02T06:48:17;7.72;;;1.60;;
85695;SDS011;76240;50.902;3.892;2024-03-02T06:50:45;5.40;;;1.58;;
85695;SDS011;76240;50.902;3.892;2024-03-02T06:53:15;7.88;;;1.92;;
85695;SDS011;76240;50.902;3.892;2024-03-02T06:55:45;7.78;;;1.70;;
85695;SDS011;76240;50.902;3.892;2024-03-02T06:58:14;10.25;;;2.25;;
85695;SDS011;76240;50.902;3.892;2024-03-02T07:00:41;12.75;;;1.77;;
85695;SDS011;76240;50.902;3.892;2024-03-02T07:03:09;9.63;;;1.63;;
85695;SDS011;76240;50.902;3.892;2024-03-02T07:05:35;8.32;;;1.55;;
85695;SDS011;76240;50.902;3.892;2024-03-02T07:08:01;6.75;;;1.80;;
85695;SDS011;76240;50.902;3.892;2024-03-02T07:10:28;6.53;;;1.60;;
85695;SDS011;76240;50.902;3.892;2024-03-02T07:12:54;6.43;;;1.80;;
85695;SDS011;76240;50.902;3.892;2024-03-02T07:15:20;8.63;;;1.85;;
85695;SDS011;76240;50.902;3.892;2024-03-02T07:17:51;11.90;;;1.85;;
85695;SDS011;76240;50.902;3.892;2024-03-02T07:20:17;9.40;;;1.98;;
85695;SDS011;76240;50.902;3.892;2024-03-02T07:22:43;8.57;;;2.15;;
85695;SDS011;76240;50.902;3.892;2024-03-02T07:25:09;5.93;;;1.70;;
85695;SDS011;76240;50.902;3.892;2024-03-02T07:27:35;7.10;;;1.90;;
85695;SDS011;76240;50.902;3.892;2024-03-02T07:30:04;7.90;;;1.88;;
85695;SDS011;76240;50.902;3.892;2024-03-02T07:32:30;12.57;;;2.20;;
85695;SDS011;76240;50.902;3.892;2024-03-02T07:34:56;9.35;;;2.45;;
85695;SDS011;76240;50.902;3.892;2024-03-02T07:37:23;10.23;;;3.03;;
85695;SDS011;76240;50.902;3.892;2024-03-02T07:39:49;9.70;;;1.83;;
85695;SDS011;76240;50.902;3.892;2024-03-02T07:42:15;6.38;;;2.08;;
85695;SDS011;76240;50.902;3.892;2024-03-02T07:44:41;7.72;;;2.50;;
85695;SDS011;76240;50.902;3.892;2024-03-02T07:47:09;11.40;;;2.72;;
85695;SDS011;76240;50.902;3.892;2024-03-02T07:49:35;12.68;;;2.72;;
85695;SDS011;76240;50.902;3.892;2024-03-02T07:52:01;13.18;;;2.08;;
85695;SDS011;76240;50.902;3.892;2024-03-02T07:54:27;9.82;;;2.03;;
85695;SDS011;76240;50.902;3.892;2024-03-02T07:56:52;9.55;;;1.70;;
85695;SDS011;76240;50.902;3.892;2024-03-02T07:59:18;11.43;;;1.95;;
85695;SDS011;76240;50.902;3.892;2024-03-02T08:01:45;6.88;;;1.60;;
85695;SDS011;76240;50.902;3.892;2024-03-02T08:04:11;10.50;;;1.88;;
85695;SDS011;76240;50.902;3.892;2024-03-02T08:06:37;8.82;;;1.98;;
85695;SDS011;76240;50.902;3.892;2024-03-02T08:09:03;11.38;;;2.22;;
85695;SDS011;76240;50.902;3.892;2024-03-02T08:11:34;5.75;;;1.65;;
85695;SDS011;76240;50.902;3.892;2024-03-02T08:14:00;12.00;;;3.10;;
85695;SDS011;76240;50.902;3.892;2024-03-02T08:16:26;10.05;;;3.00;;
85695;SDS011;76240;50.902;3.892;2024-03-02T08:18:52;10.00;;;1.90;;
85695;SDS011;76240;50.902;3.892;2024-03-02T08:21:19;7.07;;;1.90;;
85695;SDS011;76240;50.902;3.892;2024-03-02T08:23:45;6.95;;;1.73;;
85695;SDS011;76240;50.902;3.892;2024-03-02T08:26:11;11.27;;;1.73;;
85695;SDS011;76240;50.902;3.892;2024-03-02T08:28:37;6.85;;;1.70;;
85695;SDS011;76240;50.902;3.892;2024-03-02T08:31:07;7.68;;;1.70;;
85695;SDS011;76240;50.902;3.892;2024-03-02T08:33:33;5.15;;;1.55;;
85695;SDS011;76240;50.902;3.892;2024-03-02T08:36:00;4.82;;;1.52;;
85695;SDS011;76240;50.902;3.892;2024-03-02T08:38:26;8.68;;;1.70;;
85695;SDS011;76240;50.902;3.892;2024-03-02T08:40:52;9.30;;;1.90;;
85695;SDS011;76240;50.902;3.892;2024-03-02T08:43:18;8.73;;;2.03;;
85695;SDS011;76240;50.902;3.892;2024-03-02T08:45:45;8.43;;;2.00;;
85695;SDS011;76240;50.902;3.892;2024-03-02T08:48:12;9.07;;;1.85;;
85695;SDS011;76240;50.902;3.892;2024-03-02T08:50:38;9.05;;;1.80;;
85695;SDS011;76240;50.902;3.892;2024-03-02T08:53:04;7.55;;;1.88;;
85695;SDS011;76240;50.902;3.892;2024-03-02T08:55:30;7.72;;;1.63;;
85695;SDS011;76240;50.902;3.892;2024-03-02T08:57:56;10.15;;;2.05;;
85695;SDS011;76240;50.902;3.892;2024-03-02T09:00:22;9.27;;;1.52;;
85695;SDS011;76240;50.902;3.892;2024-03-02T09:02:48;7.75;;;1.67;;
85695;SDS011;76240;50.902;3.892;2024-03-02T09:05:14;7.60;;;1.80;;
85695;SDS011;76240;50.902;3.892;2024-03-02T09:07:40;8.98;;;1.42;;
85695;SDS011;76240;50.902;3.892;2024-03-02T09:10:07;7.07;;;1.67;;
85695;SDS011;76240;50.902;3.892;2024-03-02T09:12:33;6.65;;;2.00;;
85695;SDS011;76240;50.902;3.892;2024-03-02T09:14:59;9.35;;;1.75;;
85695;SDS011;76240;50.902;3.892;2024-03-02T09:17:29;5.95;;;1.60;;
85695;SDS011;76240;50.902;3.892;2024-03-02T09:19:55;10.88;;;2.65;;
85695;SDS011;76240;50.902;3.892;2024-03-02T09:22:21;12.05;;;1.50;;
85695;SDS011;76240;50.902;3.892;2024-03-02T09:24:47;11.35;;;2.20;;
85695;SDS011;76240;50.902;3.892;2024-03-02T09:27:13;7.07;;;1.58;;
85695;SDS011;76240;50.902;3.892;2024-03-02T09:29:39;6.00;;;1.55;;
85695;SDS011;76240;50.902;3.892;2024-03-02T09:32:05;8.20;;;1.38;;
85695;SDS011;76240;50.902;3.892;2024-03-02T09:34:31;6.78;;;1.58;;
85695;SDS011;76240;50.902;3.892;2024-03-02T09:36:57;9.00;;;1.50;;
85695;SDS011;76240;50.902;3.892;2024-03-02T09:39:23;9.48;;;2.13;;
85695;SDS011;76240;50.902;3.892;2024-03-02T09:41:50;13.95;;;2.22;;
85695;SDS011;76240;50.902;3.892;2024-03-02T09:44:16;6.95;;;1.83;;
85695;SDS011;76240;50.902;3.892;2024-03-02T09:46:42;6.10;;;1.38;;
85695;SDS011;76240;50.902;3.892;2024-03-02T09:49:09;10.02;;;2.08;;
85695;SDS011;76240;50.902;3.892;2024-03-02T09:51:37;5.10;;;1.52;;
85695;SDS011;76240;50.902;3.892;2024-03-02T09:54:03;10.50;;;1.67;;
85695;SDS011;76240;50.902;3.892;2024-03-02T09:56:30;7.32;;;1.38;;
85695;SDS011;76240;50.902;3.892;2024-03-02T09:58:55;13.68;;;2.78;;
85695;SDS011;76240;50.902;3.892;2024-03-02T10:01:21;11.48;;;2.00;;
85695;SDS011;76240;50.902;3.892;2024-03-02T10:03:47;10.38;;;1.92;;
85695;SDS011;76240;50.902;3.892;2024-03-02T10:08:48;7.75;;;2.58;;
85695;SDS011;76240;50.902;3.892;2024-03-02T10:11:27;7.43;;;1.50;;
85695;SDS011;76240;50.902;3.892;2024-03-02T10:14:12;11.68;;;1.88;;
85695;SDS011;76240;50.902;3.892;2024-03-02T10:19:22;10.38;;;2.20;;
85695;SDS011;76240;50.902;3.892;2024-03-02T10:21:54;12.90;;;1.50;;
85695;SDS011;76240;50.902;3.892;2024-03-02T10:24:22;6.18;;;1.52;;
85695;SDS011;76240;50.902;3.892;2024-03-02T10:26:48;6.45;;;1.50;;
85695;SDS011;76240;50.902;3.892;2024-03-02T10:29:14;5.72;;;1.35;;
85695;SDS011;76240;50.902;3.892;2024-03-02T10:31:44;6.68;;;1.85;;
85695;SDS011;76240;50.902;3.892;2024-03-02T10:34:13;8.60;;;1.60;;
85695;SDS011;76240;50.902;3.892;2024-03-02T10:36:41;6.40;;;1.63;;
85695;SDS011;76240;50.902;3.892;2024-03-02T10:39:08;5.95;;;1.50;;
85695;SDS011;76240;50.902;3.892;2024-03-02T10:41:35;8.60;;;1.63;;
85695;SDS011;76240;50.902;3.892;2024-03-02T10:44:03;8.45;;;1.50;;
85695;SDS011;76240;50.902;3.892;2024-03-02T10:46:31;6.93;;;1.50;;
85695;SDS011;76240;50.902;3.892;2024-03-02T10:49:00;10.68;;;1.60;;
85695;SDS011;76240;50.902;3.892;2024-03-02T10:51:28;6.85;;;1.75;;
85695;SDS011;76240;50.902;3.892;2024-03-02T10:53:56;11.02;;;1.40;;
85695;SDS011;76240;50.902;3.892;2024-03-02T10:59:02;9.32;;;2.22;;
85695;SDS011;76240;50.902;3.892;2024-03-02T11:01:47;10.57;;;1.90;;
85695;SDS011;76240;50.902;3.892;2024-03-02T11:04:18;6.85;;;1.52;;
85695;SDS011;76240;50.902;3.892;2024-03-02T11:06:47;8.45;;;1.55;;
85695;SDS011;76240;50.902;3.892;2024-03-02T11:09:14;6.65;;;1.50;;
85695;SDS011;76240;50.902;3.892;2024-03-02T11:11:43;11.82;;;1.80;;
85695;SDS011;76240;50.902;3.892;2024-03-02T11:14:10;6.28;;;1.80;;
85695;SDS011;76240;50.902;3.892;2024-03-02T11:16:41;7.35;;;1.73;;
85695;SDS011;76240;50.902;3.892;2024-03-02T11:19:12;7.80;;;1.85;;
85695;SDS011;76240;50.902;3.892;2024-03-02T11:21:40;9.38;;;2.13;;
85695;SDS011;76240;50.902;3.892;2024-03-02T11:26:52;8.77;;;1.63;;
85695;SDS011;76240;50.902;3.892;2024-03-02T11:32:06;7.78;;;1.40;;
85695;SDS011;76240;50.902;3.892;2024-03-02T11:34:56;13.80;;;1.98;;
85695;SDS011;76240;50.902;3.892;2024-03-02T11:37:22;8.80;;;1.67;;
85695;SDS011;76240;50.902;3.892;2024-03-02T11:39:50;9.90;;;1.98;;
85695;SDS011;76240;50.902;3.892;2024-03-02T11:42:16;9.15;;;1.55;;
85695;SDS011;76240;50.902;3.892;2024-03-02T11:44:44;9.23;;;1.95;;
85695;SDS011;76240;50.902;3.892;2024-03-02T11:47:12;9.82;;;1.90;;
85695;SDS011;76240;50.902;3.892;2024-03-02T11:49:40;11.23;;;2.45;;
85695;SDS011;76240;50.902;3.892;2024-03-02T11:52:07;10.32;;;1.75;;
85695;SDS011;76240;50.902;3.892;2024-03-02T11:54:34;8.43;;;1.73;;
85695;SDS011;76240;50.902;3.892;2024-03-02T11:57:11;10.00;;;1.73;;
85695;SDS011;76240;50.902;3.892;2024-03-02T11:59:38;8.15;;;1.70;;
85695;SDS011;76240;50.902;3.892;2024-03-02T12:02:03;11.65;;;1.98;;
85695;SDS011;76240;50.902;3.892;2024-03-02T12:04:30;7.50;;;1.48;;
85695;SDS011;76240;50.902;3.892;2024-03-02T12:06:57;5.55;;;1.52;;
85695;SDS011;76240;50.902;3.892;2024-03-02T12:09:26;10.90;;;2.42;;
85695;SDS011;76240;50.902;3.892;2024-03-02T12:12:09;6.78;;;1.60;;
85695;SDS011;76240;50.902;3.892;2024-03-02T12:17:02;6.40;;;1.45;;
85695;SDS011;76240;50.902;3.892;2024-03-02T12:19:29;8.50;;;1.65;;
85695;SDS011;76240;50.902;3.892;2024-03-02T12:21:59;10.52;;;1.70;;
85695;SDS011;76240;50.902;3.892;2024-03-02T12:24:28;9.63;;;1.80;;
85695;SDS011;76240;50.902;3.892;2024-03-02T12:26:55;9.05;;;1.88;;
85695;SDS011;76240;50.902;3.892;2024-03-02T12:29:22;9.10;;;1.70;;
85695;SDS011;76240;50.902;3.892;2024-03-02T12:31:49;10.57;;;1.77;;
85695;SDS011;76240;50.902;3.892;2024-03-02T12:34:17;6.97;;;2.10;;
85695;SDS011;76240;50.902;3.892;2024-03-02T12:36:43;8.50;;;2.00;;
85695;SDS011;76240;50.902;3.892;2024-03-02T12:39:12;9.30;;;2.33;;
85695;SDS011;76240;50.902;3.892;2024-03-02T12:41:39;9.10;;;2.10;;
85695;SDS011;76240;50.902;3.892;2024-03-02T12:44:07;10.93;;;2.22;;
85695;SDS011;76240;50.902;3.892;2024-03-02T12:46:33;6.15;;;1.80;;
85695;SDS011;76240;50.902;3.892;2024-03-02T12:49:21;8.43;;;1.83;;
85695;SDS011;76240;50.902;3.892;2024-03-02T12:51:47;4.72;;;1.65;;
85695;SDS011;76240;50.902;3.892;2024-03-02T12:54:17;8.50;;;1.80;;
85695;SDS011;76240;50.902;3.892;2024-03-02T12:56:43;11.02;;;2.20;;
85695;SDS011;76240;50.902;3.892;2024-03-02T12:59:17;8.88;;;1.98;;
85695;SDS011;76240;50.902;3.892;2024-03-02T13:01:53;8.38;;;1.85;;
85695;SDS011;76240;50.902;3.892;2024-03-02T13:04:25;10.27;;;1.98;;
85695;SDS011;76240;50.902;3.892;2024-03-02T13:06:56;6.28;;;1.92;;
85695;SDS011;76240;50.902;3.892;2024-03-02T13:09:23;7.65;;;1.60;;
85695;SDS011;76240;50.902;3.892;2024-03-02T13:11:49;9.43;;;2.30;;
85695;SDS011;76240;50.902;3.892;2024-03-02T13:14:15;10.05;;;1.73;;
85695;SDS011;76240;50.902;3.892;2024-03-02T13:16:41;9.10;;;1.70;;
85695;SDS011;76240;50.902;3.892;2024-03-02T13:19:08;7.88;;;2.38;;
85695;SDS011;76240;50.902;3.892;2024-03-02T13:21:34;12.57;;;3.83;;
85695;SDS011;76240;50.902;3.892;2024-03-02T13:24:00;11.45;;;3.63;;
85695;SDS011;76240;50.902;3.892;2024-03-02T13:26:27;8.98;;;2.20;;
85695;SDS011;76240;50.902;3.892;2024-03-02T13:28:53;6.45;;;2.00;;
85695;SDS011;76240;50.902;3.892;2024-03-02T13:31:19;14.25;;;3.00;;
85695;SDS011;76240;50.902;3.892;2024-03-02T13:33:45;11.95;;;3.55;;
85695;SDS011;76240;50.902;3.892;2024-03-02T13:36:12;16.05;;;3.58;;
85695;SDS011;76240;50.902;3.892;2024-03-02T13:38:38;14.68;;;4.20;;
85695;SDS011;76240;50.902;3.892;2024-03-02T13:41:04;12.20;;;3.67;;
85695;SDS011;76240;50.902;3.892;2024-03-02T13:43:31;9.88;;;2.75;;
85695;SDS011;76240;50.902;3.892;2024-03-02T13:45:58;10.82;;;3.05;;
85695;SDS011;76240;50.902;3.892;2024-03-02T13:48:24;9.75;;;2.97;;
85695;SDS011;76240;50.902;3.892;2024-03-02T13:50:52;9.27;;;2.25;;
85695;SDS011;76240;50.902;3.892;2024-03-02T13:53:19;8.55;;;2.10;;
85695;SDS011;76240;50.902;3.892;2024-03-02T13:55:45;7.15;;;2.42;;
85695;SDS011;76240;50.902;3.892;2024-03-02T13:58:11;8.07;;;1.83;;
85695;SDS011;76240;50.902;3.892;2024-03-02T14:00:37;6.03;;;2.03;;
85695;SDS011;76240;50.902;3.892;2024-03-02T14:03:04;7.32;;;1.75;;
85695;SDS011;76240;50.902;3.892;2024-03-02T14:05:31;9.25;;;1.63;;
85695;SDS011;76240;50.902;3.892;2024-03-02T14:07:57;10.73;;;2.00;;
85695;SDS011;76240;50.902;3.892;2024-03-02T14:10:25;9.50;;;1.90;;
85695;SDS011;76240;50.902;3.892;2024-03-02T14:12:52;7.90;;;1.60;;
85695;SDS011;76240;50.902;3.892;2024-03-02T14:15:18;6.35;;;1.75;;
85695;SDS011;76240;50.902;3.892;2024-03-02T14:17:44;10.10;;;1.60;;
85695;SDS011;76240;50.902;3.892;2024-03-02T14:20:10;6.55;;;1.52;;
85695;SDS011;76240;50.902;3.892;2024-03-02T14:22:38;8.35;;;2.15;;
85695;SDS011;76240;50.902;3.892;2024-03-02T14:25:04;6.93;;;1.65;;
85695;SDS011;76240;50.902;3.892;2024-03-02T14:27:30;12.30;;;3.75;;
85695;SDS011;76240;50.902;3.892;2024-03-02T14:29:56;9.95;;;2.92;;
85695;SDS011;76240;50.902;3.892;2024-03-02T14:32:22;8.65;;;2.10;;
85695;SDS011;76240;50.902;3.892;2024-03-02T14:34:48;7.70;;;1.98;;
85695;SDS011;76240;50.902;3.892;2024-03-02T14:37:14;8.77;;;1.77;;
85695;SDS011;76240;50.902;3.892;2024-03-02T14:39:40;5.25;;;1.77;;
85695;SDS011;76240;50.902;3.892;2024-03-02T14:42:07;6.35;;;1.85;;
85695;SDS011;76240;50.902;3.892;2024-03-02T14:44:33;9.63;;;2.00;;
85695;SDS011;76240;50.902;3.892;2024-03-02T14:47:00;6.97;;;1.80;;
85695;SDS011;76240;50.902;3.892;2024-03-02T14:49:29;6.43;;;1.85;;
85695;SDS011;76240;50.902;3.892;2024-03-02T14:51:55;6.30;;;1.70;;
85695;SDS011;76240;50.902;3.892;2024-03-02T14:54:21;7.40;;;1.50;;
85695;SDS011;76240;50.902;3.892;2024-03-02T14:56:47;4.40;;;1.08;;
85695;SDS011;76240;50.902;3.892;2024-03-02T14:59:13;3.72;;;1.30;;
85695;SDS011;76240;50.902;3.892;2024-03-02T15:01:39;5.43;;;1.38;;
85695;SDS011;76240;50.902;3.892;2024-03-02T15:04:05;5.28;;;1.60;;